createdAt,value
2019-04-25T00:02:17.816Z,99.90
2019-04-25T00:04:47.243Z,99.90
2019-04-25T00:07:16.858Z,99.90
2019-04-25T00:09:48.229Z,99.90
2019-04-25T00:12:18.395Z,99.90
2019-04-25T00:14:48.124Z,99.90
2019-04-25T00:17:17.968Z,99.90
2019-04-25T00:19:47.418Z,99.90
2019-04-25T00:22:18.435Z,99.90
2019-04-25T00:24:49.523Z,99.90
2019-04-25T00:27:18.896Z,99.90
2019-04-25T00:29:48.797Z,99.90
2019-04-25T00:32:18.111Z,99.90
2019-04-25T00:34:48.405Z,99.90
2019-04-25T00:37:17.732Z,99.90
2019-04-25T00:39:47.136Z,99.90
2019-04-25T00:42:16.451Z,99.90
2019-04-25T00:44:45.966Z,99.90
2019-04-25T00:47:15.268Z,99.90
2019-04-25T00:49:45.274Z,99.90
2019-04-25T00:52:15.284Z,99.90
2019-04-25T00:54:44.651Z,99.90
2019-04-25T00:57:14.566Z,99.90
2019-04-25T00:59:48.884Z,99.90
2019-04-25T01:02:21.431Z,99.90
2019-04-25T01:04:52.082Z,99.90
2019-04-25T01:07:22.445Z,99.90
2019-04-25T01:09:53.639Z,99.90
2019-04-25T01:12:23.981Z,99.90
2019-04-25T01:14:53.734Z,99.90
2019-04-25T01:17:23.957Z,99.90
2019-04-25T01:19:56.914Z,99.90
2019-04-25T01:22:24.562Z,99.90
2019-04-25T01:24:54.944Z,99.90
2019-04-25T01:27:24.550Z,99.90
2019-04-25T01:29:54.462Z,99.90
2019-04-25T01:32:26.212Z,99.90
2019-04-25T01:35:13.993Z,99.90
2019-04-25T01:38:01.114Z,99.90
2019-04-25T01:40:49.419Z,99.90
2019-04-25T01:43:38.924Z,99.90
2019-04-25T01:46:10.690Z,99.90
2019-04-25T01:48:40.139Z,99.90
2019-04-25T01:51:09.510Z,99.90
2019-04-25T01:53:38.873Z,99.90
2019-04-25T01:56:08.387Z,99.90
2019-04-25T01:58:37.824Z,99.90
2019-04-25T02:01:07.334Z,99.90
2019-04-25T02:03:36.776Z,99.90
2019-04-25T02:06:06.543Z,99.90
2019-04-25T02:08:36.061Z,99.90
2019-04-25T02:11:24.023Z,99.90
2019-04-25T02:13:54.914Z,99.90
2019-04-25T02:16:24.787Z,99.90
2019-04-25T02:18:55.226Z,99.90
2019-04-25T02:21:25.324Z,99.90
2019-04-25T02:23:55.782Z,99.90
2019-04-25T02:26:25.790Z,99.90
2019-04-25T02:28:56.116Z,99.90
2019-04-25T02:31:26.469Z,99.90
2019-04-25T02:33:57.911Z,99.90
2019-04-25T02:36:27.062Z,99.90
2019-04-25T02:38:59.559Z,99.90
2019-04-25T02:41:27.569Z,99.90
2019-04-25T02:44:01.188Z,99.90
2019-04-25T02:46:41.404Z,99.90
2019-04-25T02:49:31.804Z,99.90
2019-04-25T02:52:12.798Z,99.90
2019-04-25T02:54:40.353Z,99.90
2019-04-25T02:57:09.738Z,99.90
2019-04-25T02:59:39.103Z,99.90
2019-04-25T03:02:09.281Z,99.90
2019-04-25T03:04:39.001Z,99.90
2019-04-25T03:07:11.281Z,99.90
2019-04-25T03:09:39.843Z,99.90
2019-04-25T03:12:09.496Z,99.90
2019-04-25T03:14:39.191Z,99.90
2019-04-25T03:17:09.960Z,99.90
2019-04-25T03:19:46.977Z,99.90
2019-04-25T03:22:20.963Z,99.90
2019-04-25T03:24:50.591Z,99.90
2019-04-25T03:27:20.042Z,99.90
2019-04-25T03:29:49.532Z,99.90
2019-04-25T03:32:20.115Z,99.90
2019-04-25T03:34:49.756Z,99.90
2019-04-25T03:37:19.289Z,99.90
2019-04-25T03:39:48.762Z,99.90
2019-04-25T03:42:18.163Z,99.90
2019-04-25T03:44:47.757Z,99.90
2019-04-25T03:47:17.408Z,99.90
2019-04-25T03:49:46.787Z,99.90
2019-04-25T03:52:16.197Z,99.90
2019-04-25T03:54:45.586Z,99.90
2019-04-25T03:57:15.066Z,99.90
2019-04-25T03:59:44.469Z,99.90
2019-04-25T04:02:15.196Z,99.90
2019-04-25T04:04:44.886Z,99.90
2019-04-25T04:07:15.847Z,99.90
2019-04-25T04:09:45.350Z,99.90
2019-04-25T04:12:15.664Z,99.90
2019-04-25T04:14:45.120Z,99.90
2019-04-25T04:17:33.898Z,99.90
2019-04-25T04:20:06.802Z,99.90
2019-04-25T04:22:53.895Z,99.90
2019-04-25T04:25:23.694Z,99.90
2019-04-25T04:27:53.813Z,99.90
2019-04-25T04:30:24.153Z,99.90
2019-04-25T04:32:53.766Z,99.90
2019-04-25T04:35:23.560Z,99.90
2019-04-25T04:37:54.178Z,99.90
2019-04-25T04:40:24.263Z,99.90
2019-04-25T04:42:53.845Z,99.90
2019-04-25T04:45:23.388Z,99.90
2019-04-25T04:47:53.323Z,99.90
2019-04-25T04:50:23.254Z,99.90
2019-04-25T04:52:54.100Z,99.90
2019-04-25T04:55:23.542Z,99.90
2019-04-25T04:57:54.265Z,99.90
2019-04-25T05:00:25.308Z,99.90
2019-04-25T05:03:05.470Z,99.90
2019-04-25T05:05:51.728Z,99.90
2019-04-25T05:08:24.766Z,99.90
2019-04-25T05:10:54.505Z,99.90
2019-04-25T05:13:25.203Z,99.90
2019-04-25T05:15:54.777Z,99.90
2019-04-25T05:18:36.611Z,99.90
2019-04-25T05:20:55.368Z,99.90
2019-04-25T05:23:24.959Z,99.90
2019-04-25T05:25:55.791Z,99.90
2019-04-25T05:28:25.393Z,99.90
2019-04-25T05:30:56.440Z,99.90
2019-04-25T05:33:25.928Z,99.90
2019-04-25T05:35:55.347Z,99.90
2019-04-25T05:38:25.225Z,99.90
2019-04-25T05:41:05.229Z,99.90
2019-04-25T05:43:34.739Z,99.90
2019-04-25T05:46:04.351Z,98.80
2019-04-25T05:48:34.106Z,99.90
2019-04-25T05:51:03.966Z,99.30
2019-04-25T05:53:33.581Z,99.90
2019-04-25T05:56:04.145Z,99.90
2019-04-25T05:58:34.039Z,99.90
2019-04-25T06:01:03.638Z,99.90
2019-04-25T06:03:34.031Z,99.90
2019-04-25T06:06:03.543Z,99.90
2019-04-25T06:08:34.769Z,99.30
2019-04-25T06:11:05.954Z,99.90
2019-04-25T06:13:37.164Z,98.40
2019-04-25T06:16:08.431Z,98.10
2019-04-25T06:18:56.061Z,96.10
2019-04-25T06:21:25.701Z,90.30
2019-04-25T06:24:13.393Z,87.80
2019-04-25T06:26:44.871Z,90.80
2019-04-25T06:29:14.315Z,91.20
2019-04-25T06:31:43.978Z,91.30
2019-04-25T06:34:14.090Z,90.70
2019-04-25T06:36:44.091Z,90.80
2019-04-25T06:39:14.223Z,91.40
2019-04-25T06:41:44.238Z,93.10
2019-04-25T06:44:15.505Z,92.70
2019-04-25T06:47:03.373Z,93.60
2019-04-25T06:49:40.376Z,94.30
2019-04-25T06:52:10.192Z,94.30
2019-04-25T06:54:39.622Z,95.10
2019-04-25T06:57:09.048Z,95.20
2019-04-25T06:59:41.247Z,95.10
2019-04-25T07:02:09.858Z,93.50
2019-04-25T07:04:39.377Z,91.80
2019-04-25T07:07:12.130Z,89.30
2019-04-25T07:09:40.204Z,88.20
2019-04-25T07:12:09.628Z,87.70
2019-04-25T07:14:39.100Z,87.90
2019-04-25T07:17:08.526Z,88.40
2019-04-25T07:19:37.952Z,88.20
2019-04-25T07:22:07.460Z,90.50
2019-04-25T07:24:36.862Z,90.20
2019-04-25T07:27:24.621Z,85.80
2019-04-25T07:29:58.923Z,86.40
2019-04-25T07:32:31.283Z,82.70
2019-04-25T07:35:00.756Z,85.00
2019-04-25T07:37:30.174Z,86.10
2019-04-25T07:39:59.846Z,85.00
2019-04-25T07:42:29.834Z,86.50
2019-04-25T07:44:59.269Z,83.00
2019-04-25T07:47:29.287Z,87.80
2019-04-25T07:49:59.058Z,84.50
2019-04-25T07:52:28.860Z,83.20
2019-04-25T07:54:58.516Z,81.20
2019-04-25T07:57:28.010Z,82.30
2019-04-25T07:59:57.688Z,82.60
2019-04-25T08:02:28.093Z,79.00
2019-04-25T08:04:59.284Z,78.80
2019-04-25T08:07:29.658Z,81.00
2019-04-25T08:09:59.136Z,76.40
2019-04-25T08:12:28.633Z,75.50
2019-04-25T08:14:59.721Z,64.80
2019-04-25T08:17:47.045Z,67.50
2019-04-25T08:20:17.908Z,63.40
2019-04-25T08:22:56.222Z,61.90
2019-04-25T08:25:19.444Z,61.60
2019-04-25T08:27:48.973Z,62.60
2019-04-25T08:30:18.607Z,59.50
2019-04-25T08:32:48.458Z,61.70
2019-04-25T08:35:18.445Z,62.40
2019-04-25T08:37:48.003Z,63.20
2019-04-25T08:40:18.583Z,64.40
2019-04-25T08:42:48.155Z,63.80
2019-04-25T08:45:18.301Z,63.40
2019-04-25T08:47:47.754Z,65.70
2019-04-25T08:50:29.092Z,67.30
2019-04-25T08:52:50.564Z,63.10
2019-04-25T08:55:38.305Z,66.80
2019-04-25T08:58:09.480Z,65.80
2019-04-25T09:00:58.252Z,65.70
2019-04-25T09:03:22.083Z,66.40
2019-04-25T09:05:53.408Z,67.40
2019-04-25T09:08:24.082Z,68.20
2019-04-25T09:10:53.624Z,69.80
2019-04-25T09:13:23.404Z,72.10
2019-04-25T09:15:54.026Z,71.10
2019-04-25T09:18:24.096Z,71.10
2019-04-25T09:20:54.046Z,73.20
2019-04-25T09:23:23.716Z,71.70
2019-04-25T09:25:54.456Z,73.20
2019-04-25T09:28:23.975Z,71.20
2019-04-25T09:30:53.986Z,71.80
2019-04-25T09:33:23.820Z,71.70
2019-04-25T09:35:54.085Z,68.90
2019-04-25T09:38:24.391Z,63.90
2019-04-25T09:40:54.214Z,62.30
2019-04-25T09:43:23.924Z,58.60
2019-04-25T09:46:00.697Z,58.40
2019-04-25T09:48:36.256Z,54.80
2019-04-25T09:51:07.747Z,56.60
2019-04-25T09:53:44.518Z,55.10
2019-04-25T09:56:17.331Z,57.00
2019-04-25T09:58:54.229Z,58.40
2019-04-25T10:01:33.860Z,56.80
2019-04-25T10:04:04.058Z,58.30
2019-04-25T10:06:33.444Z,59.80
2019-04-25T10:09:04.996Z,59.70
2019-04-25T10:11:35.071Z,60.40
2019-04-25T10:14:13.526Z,61.20
2019-04-25T10:16:44.504Z,60.60
2019-04-25T10:19:14.845Z,61.00
2019-04-25T10:21:45.162Z,61.20
2019-04-25T10:24:14.657Z,59.00
2019-04-25T10:26:45.218Z,58.30
2019-04-25T10:29:15.521Z,58.00
2019-04-25T10:31:45.222Z,58.40
2019-04-25T10:34:14.787Z,59.20
2019-04-25T10:36:45.391Z,60.60
2019-04-25T10:39:14.899Z,62.00
2019-04-25T10:41:46.092Z,61.90
2019-04-25T10:44:15.599Z,60.90
2019-04-25T10:46:46.835Z,62.20
2019-04-25T10:49:16.300Z,61.30
2019-04-25T10:51:45.921Z,62.20
2019-04-25T10:54:15.373Z,62.40
2019-04-25T10:56:47.009Z,63.40
2019-04-25T10:59:16.004Z,64.20
2019-04-25T11:01:46.373Z,64.30
2019-04-25T11:04:18.303Z,62.00
2019-04-25T11:06:49.250Z,57.90
2019-04-25T11:09:25.506Z,59.30
2019-04-25T11:11:55.062Z,59.30
2019-04-25T11:14:25.248Z,60.80
2019-04-25T11:16:55.235Z,59.10
2019-04-25T11:19:24.910Z,59.90
2019-04-25T11:21:54.439Z,60.00
2019-04-25T11:24:23.903Z,59.40
2019-04-25T11:26:55.257Z,59.50
2019-04-25T11:29:24.937Z,61.30
2019-04-25T11:31:54.315Z,61.00
2019-04-25T11:34:23.972Z,60.30
2019-04-25T11:36:54.534Z,58.80
2019-04-25T11:39:43.268Z,60.90
2019-04-25T11:42:14.944Z,58.20
2019-04-25T11:44:45.442Z,56.20
2019-04-25T11:47:15.551Z,59.10
2019-04-25T11:49:47.426Z,56.20
2019-04-25T11:52:27.471Z,58.50
2019-04-25T11:54:50.021Z,58.60
2019-04-25T11:57:19.784Z,58.70
2019-04-25T11:59:50.501Z,60.30
2019-04-25T12:02:21.089Z,57.90
2019-04-25T12:04:51.045Z,58.20
2019-04-25T12:07:20.780Z,58.70
2019-04-25T12:09:50.179Z,59.80
2019-04-25T12:12:19.625Z,59.00
2019-04-25T12:14:49.571Z,56.60
2019-04-25T12:17:19.138Z,57.60
2019-04-25T12:19:49.084Z,55.20
2019-04-25T12:22:18.651Z,55.60
2019-04-25T12:24:48.093Z,55.50
2019-04-25T12:27:17.478Z,55.50
2019-04-25T12:29:46.872Z,56.10
2019-04-25T12:32:16.248Z,56.70
2019-04-25T12:34:45.774Z,56.00
2019-04-25T12:37:15.287Z,54.40
2019-04-25T12:39:44.672Z,54.80
2019-04-25T12:42:14.516Z,55.40
2019-04-25T12:44:47.339Z,55.10
2019-04-25T12:47:18.355Z,54.40
2019-04-25T12:49:48.671Z,52.40
2019-04-25T12:52:18.158Z,53.80
2019-04-25T12:54:47.644Z,52.20
2019-04-25T12:57:17.087Z,53.00
2019-04-25T12:59:47.375Z,53.80
2019-04-25T13:02:16.958Z,53.20
2019-04-25T13:04:47.628Z,53.90
2019-04-25T13:07:17.163Z,54.90
2019-04-25T13:09:47.825Z,53.80
2019-04-25T13:12:17.495Z,54.30
2019-04-25T13:14:46.882Z,54.60
2019-04-25T13:17:16.597Z,54.00
2019-04-25T13:19:46.019Z,52.50
2019-04-25T13:22:15.790Z,53.00
2019-04-25T13:24:45.160Z,52.70
2019-04-25T13:27:27.868Z,52.50
2019-04-25T13:30:01.581Z,51.60
2019-04-25T13:32:41.315Z,52.30
2019-04-25T13:35:18.297Z,53.30
2019-04-25T13:37:47.684Z,52.80
2019-04-25T13:40:18.461Z,52.20
2019-04-25T13:42:48.054Z,52.20
2019-04-25T13:45:17.765Z,51.50
2019-04-25T13:47:47.294Z,52.30
2019-04-25T13:50:17.013Z,54.50
2019-04-25T13:52:46.495Z,53.80
2019-04-25T13:55:15.925Z,53.90
2019-04-25T13:57:45.350Z,53.40
2019-04-25T14:00:15.391Z,53.70
2019-04-25T14:02:44.922Z,53.70
2019-04-25T14:05:16.095Z,51.40
2019-04-25T14:07:45.492Z,52.20
2019-04-25T14:10:15.083Z,53.60
2019-04-25T14:12:44.469Z,53.00
2019-04-25T14:15:17.344Z,53.20
2019-04-25T14:17:54.361Z,53.70
2019-04-25T14:20:33.891Z,53.20
2019-04-25T14:23:03.678Z,53.10
2019-04-25T14:25:33.189Z,52.90
2019-04-25T14:28:05.403Z,52.80
2019-04-25T14:30:36.027Z,52.70
2019-04-25T14:33:05.630Z,53.90
2019-04-25T14:35:35.153Z,54.90
2019-04-25T14:38:04.616Z,54.70
2019-04-25T14:40:34.053Z,53.80
2019-04-25T14:43:05.149Z,54.30
2019-04-25T14:45:43.038Z,54.10
2019-04-25T14:48:05.891Z,52.90
2019-04-25T14:50:36.160Z,51.80
2019-04-25T14:53:05.688Z,52.70
2019-04-25T14:55:46.125Z,52.80
2019-04-25T14:58:17.137Z,52.80
2019-04-25T15:00:48.250Z,52.70
2019-04-25T15:03:17.702Z,52.80
2019-04-25T15:05:47.161Z,52.10
2019-04-25T15:08:16.576Z,51.50
2019-04-25T15:10:48.354Z,51.90
2019-04-25T15:13:17.311Z,52.20
2019-04-25T15:15:46.702Z,52.20
2019-04-25T15:18:16.138Z,52.10
2019-04-25T15:20:45.490Z,52.60
2019-04-25T15:23:14.882Z,53.60
2019-04-25T15:25:44.272Z,54.10
2019-04-25T15:28:13.825Z,54.20
2019-04-25T15:30:43.259Z,53.10
2019-04-25T15:33:12.656Z,53.10
2019-04-25T15:35:55.719Z,52.90
2019-04-25T15:38:44.614Z,52.50
2019-04-25T15:41:21.636Z,52.90
2019-04-25T15:43:58.632Z,53.60
2019-04-25T15:46:44.652Z,53.40
2019-04-25T15:49:14.110Z,54.00
2019-04-25T15:51:43.525Z,53.80
2019-04-25T15:54:12.893Z,54.00
2019-04-25T15:56:42.340Z,53.90
2019-04-25T15:59:11.731Z,54.40
2019-04-25T16:01:41.119Z,54.60
2019-04-25T16:04:10.511Z,54.50
2019-04-25T16:06:40.008Z,54.20
2019-04-25T16:09:10.478Z,54.50
2019-04-25T16:11:40.130Z,54.30
2019-04-25T16:14:09.518Z,54.20
2019-04-25T16:16:38.917Z,54.20
2019-04-25T16:19:08.831Z,54.50
2019-04-25T16:21:38.361Z,54.00
2019-04-25T16:24:08.518Z,53.80
2019-04-25T16:26:37.941Z,53.70
2019-04-25T16:29:07.460Z,54.20
2019-04-25T16:31:36.931Z,53.40
2019-04-25T16:34:06.400Z,53.90
2019-04-25T16:36:35.769Z,54.60
2019-04-25T16:39:08.803Z,54.00
2019-04-25T16:41:40.342Z,55.40
2019-04-25T16:44:10.966Z,55.40
2019-04-25T16:46:41.714Z,55.10
2019-04-25T16:49:11.124Z,55.40
2019-04-25T16:51:40.509Z,55.50
2019-04-25T16:54:09.998Z,55.80
2019-04-25T16:56:39.401Z,56.50
2019-04-25T16:59:08.877Z,56.40
2019-04-25T17:01:38.605Z,56.90
2019-04-25T17:04:08.180Z,58.10
2019-04-25T17:06:38.013Z,58.00
2019-04-25T17:09:07.821Z,58.70
2019-04-25T17:11:37.239Z,59.60
2019-04-25T17:14:08.334Z,60.40
2019-04-25T17:16:39.461Z,61.40
2019-04-25T17:19:16.243Z,61.60
2019-04-25T17:21:45.885Z,61.70
2019-04-25T17:24:15.350Z,62.10
2019-04-25T17:26:44.823Z,62.10
2019-04-25T17:29:15.946Z,62.70
2019-04-25T17:31:58.824Z,63.60
2019-04-25T17:34:30.758Z,64.00
2019-04-25T17:37:05.275Z,64.10
2019-04-25T17:39:42.230Z,63.90
2019-04-25T17:42:12.009Z,63.20
2019-04-25T17:44:41.377Z,62.50
2019-04-25T17:47:10.799Z,61.70
2019-04-25T17:49:40.190Z,61.10
2019-04-25T17:52:09.585Z,60.70
2019-04-25T17:54:38.978Z,60.80
2019-04-25T17:57:08.446Z,60.80
2019-04-25T17:59:37.843Z,61.10
2019-04-25T18:02:07.484Z,61.30
2019-04-25T18:04:36.873Z,61.80
2019-04-25T18:07:06.667Z,62.40
2019-04-25T18:09:36.829Z,61.90
2019-04-25T18:12:06.443Z,61.90
2019-04-25T18:14:36.373Z,61.40
2019-04-25T18:17:06.397Z,61.60
2019-04-25T18:19:46.631Z,62.10
2019-04-25T18:22:26.435Z,61.80
2019-04-25T18:25:00.429Z,62.30
2019-04-25T18:27:31.546Z,63.70
2019-04-25T18:30:01.125Z,63.80
2019-04-25T18:32:32.109Z,63.90
2019-04-25T18:35:03.147Z,64.90
2019-04-25T18:37:37.317Z,65.20
2019-04-25T18:40:12.138Z,65.40
2019-04-25T18:42:49.433Z,65.90
2019-04-25T18:45:23.317Z,66.20
2019-04-25T18:47:52.691Z,66.00
2019-04-25T18:50:23.719Z,67.90
2019-04-25T18:53:09.881Z,67.80
2019-04-25T18:55:49.703Z,68.80
2019-04-25T18:58:39.852Z,68.70
2019-04-25T19:01:13.709Z,68.90
2019-04-25T19:03:59.525Z,68.80
2019-04-25T19:06:28.996Z,68.90
2019-04-25T19:08:58.378Z,69.70
2019-04-25T19:11:27.883Z,69.60
2019-04-25T19:13:57.315Z,69.60
2019-04-25T19:16:26.708Z,71.00
2019-04-25T19:18:56.098Z,71.70
2019-04-25T19:21:25.691Z,71.40
2019-04-25T19:23:55.185Z,72.30
2019-04-25T19:26:24.627Z,72.40
2019-04-25T19:28:54.037Z,72.70
2019-04-25T19:31:23.406Z,72.50
2019-04-25T19:33:52.931Z,73.20
2019-04-25T19:36:22.412Z,73.70
2019-04-25T19:38:52.486Z,73.60
2019-04-25T19:41:29.454Z,73.60
2019-04-25T19:44:06.165Z,75.70
2019-04-25T19:46:40.359Z,75.10
2019-04-25T19:49:10.800Z,75.40
2019-04-25T19:51:41.667Z,74.80
2019-04-25T19:54:11.318Z,76.40
2019-04-25T19:56:42.259Z,75.80
2019-04-25T19:59:11.933Z,75.70
2019-04-25T20:01:42.476Z,75.20
2019-04-25T20:04:16.010Z,76.90
2019-04-25T20:07:02.831Z,75.80
2019-04-25T20:09:49.004Z,76.90
2019-04-25T20:12:19.021Z,76.10
2019-04-25T20:14:49.207Z,76.60
2019-04-25T20:17:18.663Z,77.20
2019-04-25T20:19:48.109Z,77.20
2019-04-25T20:22:17.581Z,77.20
2019-04-25T20:24:47.056Z,77.30
2019-04-25T20:27:16.423Z,77.60
2019-04-25T20:29:46.572Z,77.80
2019-04-25T20:32:16.119Z,78.70
2019-04-25T20:34:46.075Z,78.40
2019-04-25T20:37:16.492Z,79.20
2019-04-25T20:39:46.058Z,79.10
2019-04-25T20:42:15.467Z,79.60
2019-04-25T20:44:45.402Z,80.60
2019-04-25T20:47:16.082Z,80.40
2019-04-25T20:49:46.645Z,81.10
2019-04-25T20:52:16.217Z,80.50
2019-04-25T20:54:46.591Z,80.70
2019-04-25T20:57:16.812Z,81.10
2019-04-25T20:59:47.235Z,81.20
2019-04-25T21:02:17.404Z,81.30
2019-04-25T21:04:47.750Z,81.70
2019-04-25T21:07:17.920Z,81.80
2019-04-25T21:09:47.326Z,82.20
2019-04-25T21:12:18.532Z,82.50
2019-04-25T21:14:52.777Z,83.40
2019-04-25T21:17:32.865Z,83.50
2019-04-25T21:20:03.900Z,83.50
2019-04-25T21:22:33.379Z,83.70
2019-04-25T21:25:05.458Z,84.50
2019-04-25T21:27:34.221Z,85.30
2019-04-25T21:30:05.158Z,84.80
2019-04-25T21:32:36.175Z,84.90
2019-04-25T21:35:07.122Z,85.00
2019-04-25T21:37:36.507Z,85.60
2019-04-25T21:40:09.090Z,85.50
2019-04-25T21:42:40.529Z,85.60
2019-04-25T21:45:10.374Z,85.80
2019-04-25T21:47:39.823Z,86.70
2019-04-25T21:50:09.638Z,86.90
2019-04-25T21:52:39.746Z,87.40
2019-04-25T21:55:10.007Z,87.60
2019-04-25T21:57:39.758Z,87.80
2019-04-25T22:00:13.289Z,88.10
2019-04-25T22:02:42.938Z,89.70
2019-04-25T22:05:13.238Z,90.20
2019-04-25T22:07:42.919Z,89.80
2019-04-25T22:10:13.201Z,90.00
2019-04-25T22:12:42.833Z,90.20
2019-04-25T22:15:13.526Z,90.20
2019-04-25T22:17:42.991Z,90.10
2019-04-25T22:20:12.673Z,90.10
2019-04-25T22:22:42.528Z,90.10
2019-04-25T22:25:12.164Z,90.30
2019-04-25T22:27:41.873Z,90.40
2019-04-25T22:30:13.627Z,90.60
2019-04-25T22:32:45.001Z,90.70
2019-04-25T22:35:28.138Z,90.70
2019-04-25T22:37:57.631Z,90.90
2019-04-25T22:40:28.217Z,91.40
2019-04-25T22:42:58.226Z,91.20
2019-04-25T22:45:29.414Z,91.30
2019-04-25T22:48:01.306Z,91.40
2019-04-25T22:50:31.726Z,91.40
2019-04-25T22:53:02.016Z,91.50
2019-04-25T22:55:33.270Z,91.70
2019-04-25T22:58:03.689Z,92.90
2019-04-25T23:00:38.000Z,92.40
2019-04-25T23:03:09.398Z,92.40
2019-04-25T23:05:41.467Z,92.60
2019-04-25T23:08:11.124Z,92.50
2019-04-25T23:10:40.627Z,92.90
2019-04-25T23:13:10.942Z,93.10
2019-04-25T23:15:40.380Z,94.00
2019-04-25T23:18:10.073Z,93.70
2019-04-25T23:20:39.547Z,93.70
2019-04-25T23:23:09.719Z,93.70
2019-04-25T23:25:55.502Z,93.70
2019-04-25T23:28:26.849Z,94.20
2019-04-25T23:30:57.897Z,94.70
2019-04-25T23:33:28.662Z,94.50
2019-04-25T23:35:58.605Z,94.50
2019-04-25T23:38:28.011Z,94.50
2019-04-25T23:40:57.416Z,94.50
2019-04-25T23:43:27.037Z,95.60
2019-04-25T23:45:56.440Z,95.70
2019-04-25T23:48:26.314Z,96.10
2019-04-25T23:50:55.781Z,95.80
2019-04-25T23:53:25.194Z,95.80
2019-04-25T23:55:54.676Z,95.70
2019-04-25T23:58:24.217Z,96.00
